createdAt,value
2022-12-06T00:01:35.690Z,52.30
2022-12-06T00:04:11.734Z,50.00
2022-12-06T00:06:51.635Z,44.40
2022-12-06T00:09:29.605Z,43.50
2022-12-06T00:11:58.619Z,48.90
2022-12-06T00:14:27.362Z,49.00
2022-12-06T00:16:55.515Z,50.40
2022-12-06T00:19:24.407Z,50.50
2022-12-06T00:21:52.248Z,50.40
2022-12-06T00:24:22.929Z,56.20
2022-12-06T00:26:51.364Z,51.50
2022-12-06T00:29:24.266Z,51.60
2022-12-06T00:31:52.291Z,58.30
2022-12-06T00:34:20.161Z,54.00
2022-12-06T00:36:48.817Z,52.70
2022-12-06T00:39:18.076Z,53.00
2022-12-06T00:41:45.937Z,51.20
2022-12-06T00:44:13.768Z,52.20
2022-12-06T00:46:41.531Z,52.40
2022-12-06T00:49:09.903Z,54.70
2022-12-06T00:51:38.567Z,53.20
2022-12-06T00:54:08.257Z,55.00
2022-12-06T00:56:37.279Z,58.30
2022-12-06T00:59:06.171Z,52.30
2022-12-06T01:01:36.046Z,54.30
2022-12-06T01:04:07.099Z,53.30
2022-12-06T01:06:37.462Z,49.90
2022-12-06T01:09:10.456Z,51.40
2022-12-06T01:11:38.526Z,55.20
2022-12-06T01:14:06.459Z,53.10
2022-12-06T01:16:35.170Z,53.40
2022-12-06T01:19:05.854Z,53.00
2022-12-06T01:21:34.090Z,52.10
2022-12-06T01:24:01.820Z,54.50
2022-12-06T01:26:33.136Z,56.70
2022-12-06T01:29:02.546Z,56.90
2022-12-06T01:31:37.658Z,62.20
2022-12-06T01:34:14.900Z,55.60
2022-12-06T01:36:43.296Z,51.40
2022-12-06T01:39:11.736Z,51.10
2022-12-06T01:41:40.031Z,50.00
2022-12-06T01:44:46.505Z,51.10
2022-12-06T01:47:26.450Z,48.90
2022-12-06T01:50:13.465Z,52.80
2022-12-06T01:52:56.854Z,46.10
2022-12-06T01:55:29.052Z,50.10
2022-12-06T01:58:09.984Z,56.30
2022-12-06T02:00:37.742Z,52.90
2022-12-06T02:03:12.332Z,50.40
2022-12-06T02:05:41.565Z,59.60
2022-12-06T02:08:10.609Z,55.50
2022-12-06T02:10:38.654Z,51.10
2022-12-06T02:13:07.805Z,56.40
2022-12-06T02:15:56.739Z,53.60
2022-12-06T02:18:48.172Z,50.50
2022-12-06T02:21:34.856Z,46.60
2022-12-06T02:24:24.986Z,47.60
2022-12-06T02:27:07.104Z,43.60
2022-12-06T02:30:09.546Z,42.20
2022-12-06T02:32:54.635Z,44.80
2022-12-06T02:35:37.128Z,40.90
2022-12-06T02:38:28.281Z,45.90
2022-12-06T02:41:22.492Z,44.10
2022-12-06T02:44:06.217Z,42.30
2022-12-06T02:46:41.534Z,43.10
2022-12-06T02:49:14.318Z,45.00
2022-12-06T02:51:43.336Z,44.20
2022-12-06T02:54:12.575Z,38.10
2022-12-06T02:56:40.245Z,49.50
2022-12-06T02:59:07.892Z,44.30
2022-12-06T03:01:47.219Z,46.90
2022-12-06T03:04:49.860Z,39.00
2022-12-06T03:07:43.470Z,42.00
2022-12-06T03:10:44.946Z,41.10
2022-12-06T03:13:18.204Z,40.80
2022-12-06T03:16:28.443Z,40.50
2022-12-06T03:19:15.304Z,42.30
2022-12-06T03:22:11.785Z,51.40
2022-12-06T03:24:43.008Z,40.90
2022-12-06T03:27:18.023Z,37.50
2022-12-06T03:29:52.911Z,39.20
2022-12-06T03:32:28.226Z,38.20
2022-12-06T03:35:01.567Z,41.80
2022-12-06T03:37:32.784Z,41.20
2022-12-06T03:40:27.277Z,40.70
2022-12-06T03:42:56.259Z,37.50
2022-12-06T03:45:39.028Z,40.60
2022-12-06T03:48:26.278Z,41.10
2022-12-06T03:51:07.805Z,36.40
2022-12-06T03:53:44.235Z,35.90
2022-12-06T03:56:12.084Z,36.60
2022-12-06T03:58:39.872Z,36.60
2022-12-06T04:01:07.542Z,39.80
2022-12-06T04:03:35.823Z,38.80
2022-12-06T04:06:06.163Z,36.20
2022-12-06T04:08:34.742Z,39.80
2022-12-06T04:11:02.538Z,39.90
2022-12-06T04:13:31.938Z,38.30
2022-12-06T04:16:02.005Z,42.80
2022-12-06T04:18:30.023Z,36.70
2022-12-06T04:21:20.134Z,38.20
2022-12-06T04:23:51.369Z,38.70
2022-12-06T04:26:22.617Z,43.30
2022-12-06T04:29:11.659Z,31.40
2022-12-06T04:31:59.747Z,39.90
2022-12-06T04:34:46.117Z,41.10
2022-12-06T04:37:32.738Z,35.80
2022-12-06T04:40:00.903Z,42.50
2022-12-06T04:42:47.537Z,36.80
2022-12-06T04:45:15.205Z,38.10
2022-12-06T04:47:42.878Z,38.50
2022-12-06T04:50:10.750Z,37.80
2022-12-06T04:52:38.543Z,41.10
2022-12-06T04:55:06.509Z,40.90
2022-12-06T04:57:34.282Z,35.30
2022-12-06T05:00:02.082Z,38.40
2022-12-06T05:02:29.964Z,36.80
2022-12-06T05:04:57.789Z,38.70
2022-12-06T05:07:25.962Z,36.30
2022-12-06T05:09:53.769Z,36.60
2022-12-06T05:12:21.386Z,40.10
2022-12-06T05:14:49.110Z,34.50
2022-12-06T05:17:16.732Z,31.40
2022-12-06T05:19:44.364Z,32.30
2022-12-06T05:22:12.045Z,33.80
2022-12-06T05:24:39.689Z,33.80
2022-12-06T05:27:07.338Z,34.40
2022-12-06T05:29:35.062Z,36.20
2022-12-06T05:32:02.810Z,33.00
2022-12-06T05:34:30.638Z,38.90
2022-12-06T05:36:58.377Z,38.40
2022-12-06T05:39:26.063Z,36.90
2022-12-06T05:41:53.789Z,37.40
2022-12-06T05:44:21.485Z,43.70
2022-12-06T05:46:49.232Z,39.80
2022-12-06T05:49:16.981Z,47.00
2022-12-06T05:51:44.658Z,40.80
2022-12-06T05:54:12.555Z,41.00
2022-12-06T05:56:40.388Z,40.30
2022-12-06T05:59:08.099Z,37.80
2022-12-06T06:01:35.821Z,40.40
2022-12-06T06:04:03.885Z,42.20
2022-12-06T06:06:31.935Z,43.80
2022-12-06T06:08:59.720Z,52.30
2022-12-06T06:11:27.527Z,52.70
2022-12-06T06:13:55.326Z,48.40
2022-12-06T06:16:23.001Z,51.70
2022-12-06T06:18:50.956Z,52.00
2022-12-06T06:21:18.589Z,45.60
2022-12-06T06:23:46.258Z,39.40
2022-12-06T06:26:14.070Z,45.00
2022-12-06T06:28:41.777Z,45.80
2022-12-06T06:31:10.062Z,44.30
2022-12-06T06:33:37.816Z,45.00
2022-12-06T06:36:06.153Z,42.40
2022-12-06T06:38:33.986Z,38.30
2022-12-06T06:41:03.765Z,34.20
2022-12-06T06:43:32.413Z,36.10
2022-12-06T06:46:04.044Z,38.50
2022-12-06T06:48:38.064Z,37.50
2022-12-06T06:51:10.185Z,33.90
2022-12-06T06:53:39.787Z,32.30
2022-12-06T06:56:08.442Z,33.40
2022-12-06T06:58:36.254Z,37.10
2022-12-06T07:01:07.354Z,36.90
2022-12-06T07:03:35.759Z,37.90
2022-12-06T07:06:09.852Z,34.00
2022-12-06T07:08:40.270Z,31.30
2022-12-06T07:11:10.767Z,34.90
2022-12-06T07:13:43.204Z,34.60
2022-12-06T07:16:16.470Z,42.50
2022-12-06T07:18:44.236Z,67.30
2022-12-06T07:21:15.175Z,75.10
2022-12-06T07:23:43.120Z,56.40
2022-12-06T07:26:17.242Z,53.40
2022-12-06T07:28:47.360Z,55.30
2022-12-06T07:31:19.213Z,55.30
2022-12-06T07:33:48.807Z,55.90
2022-12-06T07:36:16.536Z,53.30
2022-12-06T07:38:50.137Z,63.40
2022-12-06T07:41:40.289Z,62.10
2022-12-06T07:44:30.739Z,60.20
2022-12-06T07:46:58.726Z,56.00
2022-12-06T07:49:26.476Z,59.00
2022-12-06T07:51:56.001Z,55.80
2022-12-06T07:54:24.764Z,52.30
2022-12-06T07:56:56.256Z,62.60
2022-12-06T07:59:25.618Z,58.10
2022-12-06T08:01:54.001Z,58.70
2022-12-06T08:04:21.944Z,55.80
2022-12-06T08:06:49.830Z,56.60
2022-12-06T08:09:17.948Z,57.20
2022-12-06T08:11:46.015Z,58.10
2022-12-06T08:14:14.485Z,55.00
2022-12-06T08:16:42.492Z,55.30
2022-12-06T08:19:10.115Z,62.40
2022-12-06T08:21:37.843Z,63.30
2022-12-06T08:24:05.993Z,55.60
2022-12-06T08:26:33.919Z,53.00
2022-12-06T08:29:01.879Z,53.70
2022-12-06T08:31:31.514Z,50.50
2022-12-06T08:33:59.330Z,48.60
2022-12-06T08:36:28.578Z,45.90
2022-12-06T08:38:59.280Z,53.90
2022-12-06T08:41:45.941Z,53.10
2022-12-06T08:44:16.290Z,37.50
2022-12-06T08:46:45.502Z,42.50
2022-12-06T08:49:16.134Z,45.20
2022-12-06T08:51:44.552Z,41.60
2022-12-06T08:54:16.487Z,36.00
2022-12-06T08:56:44.749Z,36.50
2022-12-06T08:59:13.043Z,38.20
2022-12-06T09:01:41.852Z,33.50
2022-12-06T09:04:11.447Z,33.00
2022-12-06T09:06:42.136Z,40.30
2022-12-06T09:09:11.739Z,48.50
2022-12-06T09:11:40.393Z,37.20
2022-12-06T09:14:13.286Z,36.40
2022-12-06T09:16:45.350Z,30.80
2022-12-06T09:19:14.678Z,37.20
2022-12-06T09:21:43.535Z,36.90
2022-12-06T09:24:14.201Z,36.70
2022-12-06T09:26:42.134Z,33.10
2022-12-06T09:29:10.438Z,33.90
2022-12-06T09:31:39.519Z,30.80
2022-12-06T09:34:12.796Z,31.70
2022-12-06T09:37:07.423Z,29.30
2022-12-06T09:39:42.733Z,32.40
2022-12-06T09:42:44.183Z,31.60
2022-12-06T09:45:33.137Z,28.80
2022-12-06T09:48:16.428Z,42.00
2022-12-06T09:51:10.172Z,65.80
2022-12-06T09:53:55.962Z,74.10
2022-12-06T09:56:40.372Z,70.50
2022-12-06T09:59:44.897Z,62.90
2022-12-06T10:02:44.519Z,40.60
2022-12-06T10:06:03.082Z,32.30
2022-12-06T10:09:07.803Z,30.20
2022-12-06T10:11:55.885Z,38.00
2022-12-06T10:14:50.720Z,32.00
2022-12-06T10:17:54.872Z,34.10
2022-12-06T10:20:31.300Z,29.70
2022-12-06T10:23:37.160Z,33.10
2022-12-06T10:26:19.230Z,40.50
2022-12-06T10:29:29.132Z,45.80
2022-12-06T10:32:03.670Z,53.50
2022-12-06T10:34:49.588Z,58.20
2022-12-06T10:37:50.935Z,54.70
2022-12-06T10:40:34.936Z,60.40
2022-12-06T10:43:18.054Z,62.30
2022-12-06T10:46:24.142Z,67.20
2022-12-06T10:49:32.643Z,72.50
2022-12-06T10:52:26.052Z,74.30
2022-12-06T10:54:57.018Z,67.50
2022-12-06T10:58:36.244Z,66.10
2022-12-06T11:01:16.991Z,66.70
2022-12-06T11:04:10.777Z,65.50
2022-12-06T11:06:54.680Z,93.50
2022-12-06T11:09:44.145Z,95.50
2022-12-06T11:12:34.203Z,116.00
2022-12-06T11:15:21.218Z,111.70
2022-12-06T11:18:02.955Z,116.30
2022-12-06T11:20:47.850Z,73.00
2022-12-06T11:24:01.549Z,71.10
2022-12-06T11:26:49.087Z,55.10
2022-12-06T11:29:17.138Z,50.40
2022-12-06T11:31:55.062Z,52.10
2022-12-06T11:34:31.216Z,39.00
2022-12-06T11:37:02.458Z,37.60
2022-12-06T11:39:32.685Z,36.70
2022-12-06T11:42:04.867Z,36.10
2022-12-06T11:45:04.099Z,42.40
2022-12-06T11:47:32.575Z,45.50
2022-12-06T11:50:05.833Z,45.80
2022-12-06T11:52:53.058Z,43.40
2022-12-06T11:55:34.464Z,38.60
2022-12-06T11:58:11.335Z,49.80
2022-12-06T12:00:58.943Z,41.20
2022-12-06T12:03:31.451Z,47.90
2022-12-06T12:06:30.348Z,47.50
2022-12-06T12:09:06.244Z,42.30
2022-12-06T12:11:40.157Z,37.00
2022-12-06T12:14:18.401Z,37.80
2022-12-06T12:16:50.608Z,38.60
2022-12-06T12:19:59.081Z,34.50
2022-12-06T12:22:42.919Z,35.70
2022-12-06T12:25:20.268Z,37.50
2022-12-06T12:27:51.978Z,39.40
2022-12-06T12:30:24.366Z,36.40
2022-12-06T12:33:15.066Z,32.60
2022-12-06T12:35:48.122Z,37.50
2022-12-06T12:38:24.764Z,33.90
2022-12-06T12:40:59.548Z,31.50
2022-12-06T12:43:33.325Z,33.00
2022-12-06T12:46:19.537Z,37.00
2022-12-06T12:48:50.740Z,31.80
2022-12-06T12:51:34.079Z,33.00
2022-12-06T12:54:24.969Z,39.20
2022-12-06T12:56:54.082Z,26.50
2022-12-06T12:59:25.754Z,27.70
2022-12-06T13:02:23.915Z,24.80
2022-12-06T13:05:24.739Z,39.00
2022-12-06T13:07:53.232Z,28.90
2022-12-06T13:10:31.959Z,30.70
2022-12-06T13:13:03.581Z,27.50
2022-12-06T13:15:40.635Z,14.80
2022-12-06T13:18:21.583Z,18.20
2022-12-06T13:20:53.520Z,16.30
2022-12-06T13:23:27.705Z,24.00
2022-12-06T13:26:07.359Z,30.60
2022-12-06T13:28:43.747Z,21.10
2022-12-06T13:31:18.281Z,18.00
2022-12-06T13:33:54.705Z,16.70
2022-12-06T13:36:24.878Z,25.30
2022-12-06T13:38:56.043Z,43.20
2022-12-06T13:41:54.099Z,54.70
2022-12-06T13:44:54.427Z,32.50
2022-12-06T13:47:30.499Z,29.20
2022-12-06T13:50:21.163Z,25.50
2022-12-06T13:52:48.774Z,17.60
2022-12-06T13:55:25.417Z,25.50
2022-12-06T13:57:56.112Z,22.00
2022-12-06T14:00:29.712Z,22.30
2022-12-06T14:02:59.114Z,23.30
2022-12-06T14:06:14.714Z,19.70
2022-12-06T14:08:54.507Z,22.30
2022-12-06T14:11:28.157Z,24.40
2022-12-06T14:13:55.852Z,49.30
2022-12-06T14:16:35.577Z,33.20
2022-12-06T14:19:14.182Z,21.80
2022-12-06T14:21:53.193Z,62.70
2022-12-06T14:24:39.874Z,71.10
2022-12-06T14:27:18.728Z,25.40
2022-12-06T14:30:15.355Z,22.90
2022-12-06T14:32:48.352Z,38.00
2022-12-06T14:35:21.852Z,61.80
2022-12-06T14:37:55.165Z,90.50
2022-12-06T14:40:50.644Z,57.10
2022-12-06T14:43:19.543Z,61.80
2022-12-06T14:45:47.728Z,43.70
2022-12-06T14:48:16.443Z,34.00
2022-12-06T14:50:51.821Z,23.30
2022-12-06T14:53:35.658Z,25.20
2022-12-06T14:56:30.830Z,31.20
2022-12-06T14:59:09.020Z,19.50
2022-12-06T15:01:50.819Z,26.50
2022-12-06T15:04:40.199Z,24.30
2022-12-06T15:07:45.777Z,19.40
2022-12-06T15:10:25.554Z,23.30
2022-12-06T15:12:56.574Z,43.20
2022-12-06T15:16:26.199Z,26.30
2022-12-06T15:19:00.131Z,34.00
2022-12-06T15:21:27.808Z,36.60
2022-12-06T15:23:56.704Z,31.40
2022-12-06T15:26:25.150Z,36.50
2022-12-06T15:28:52.893Z,29.40
2022-12-06T15:31:28.043Z,29.30
2022-12-06T15:33:56.383Z,26.10
2022-12-06T15:36:35.050Z,29.20
2022-12-06T15:39:02.785Z,27.20
2022-12-06T15:41:30.481Z,30.20
2022-12-06T15:43:58.168Z,31.10
2022-12-06T15:46:30.029Z,30.80
2022-12-06T15:48:58.143Z,34.50
2022-12-06T15:51:27.402Z,30.40
2022-12-06T15:53:58.132Z,33.80
2022-12-06T15:56:29.930Z,34.00
2022-12-06T15:58:57.696Z,26.40
2022-12-06T16:01:34.540Z,19.70
2022-12-06T16:04:03.351Z,22.60
2022-12-06T16:06:31.009Z,25.50
2022-12-06T16:08:58.674Z,25.00
2022-12-06T16:11:27.317Z,29.20
2022-12-06T16:13:55.046Z,21.20
2022-12-06T16:16:22.984Z,37.50
2022-12-06T16:18:51.121Z,29.90
2022-12-06T16:21:25.298Z,33.50
2022-12-06T16:24:14.843Z,34.30
2022-12-06T16:26:44.836Z,32.50
2022-12-06T16:29:23.170Z,30.10
2022-12-06T16:31:51.514Z,29.20
2022-12-06T16:34:19.704Z,31.50
2022-12-06T16:37:06.655Z,26.70
2022-12-06T16:39:35.670Z,25.00
2022-12-06T16:42:04.946Z,28.80
2022-12-06T16:44:32.680Z,41.90
2022-12-06T16:47:00.501Z,39.00
2022-12-06T16:49:47.964Z,31.50
2022-12-06T16:52:17.398Z,28.50
2022-12-06T16:54:45.251Z,26.90
2022-12-06T16:57:14.329Z,28.80
2022-12-06T16:59:43.067Z,32.70
2022-12-06T17:02:37.901Z,36.40
2022-12-06T17:05:08.171Z,32.00
2022-12-06T17:07:36.813Z,42.30
2022-12-06T17:10:06.098Z,37.50
2022-12-06T17:12:33.786Z,38.80
2022-12-06T17:15:01.869Z,28.00
2022-12-06T17:17:29.848Z,24.80
2022-12-06T17:19:58.405Z,22.90
2022-12-06T17:22:26.088Z,27.00
2022-12-06T17:24:53.894Z,29.10
2022-12-06T17:27:21.663Z,32.30
2022-12-06T17:29:49.494Z,45.20
2022-12-06T17:32:18.218Z,47.00
2022-12-06T17:34:46.250Z,44.50
2022-12-06T17:37:13.959Z,45.60
2022-12-06T17:39:41.788Z,29.90
2022-12-06T17:42:31.440Z,21.80
2022-12-06T17:44:59.607Z,18.90
2022-12-06T17:47:27.767Z,22.00
2022-12-06T17:49:56.457Z,21.50
2022-12-06T17:52:24.787Z,19.00
2022-12-06T17:54:52.520Z,19.20
2022-12-06T17:57:20.313Z,16.40
2022-12-06T17:59:48.575Z,14.60
2022-12-06T18:02:24.103Z,15.80
2022-12-06T18:04:53.998Z,14.20
2022-12-06T18:07:21.867Z,15.10
2022-12-06T18:09:49.825Z,19.10
2022-12-06T18:12:18.386Z,17.00
2022-12-06T18:14:46.295Z,20.40
2022-12-06T18:17:14.119Z,21.20
2022-12-06T18:19:43.765Z,23.30
2022-12-06T18:22:11.579Z,22.50
2022-12-06T18:24:39.310Z,22.30
2022-12-06T18:27:07.535Z,19.60
2022-12-06T18:29:35.426Z,19.30
2022-12-06T18:32:05.392Z,19.50
2022-12-06T18:34:33.184Z,19.80
2022-12-06T18:37:01.425Z,19.50
2022-12-06T18:39:29.201Z,20.80
2022-12-06T18:41:57.305Z,20.00
2022-12-06T18:44:25.626Z,19.70
2022-12-06T18:46:53.457Z,22.80
2022-12-06T18:49:21.391Z,18.90
2022-12-06T18:51:49.039Z,23.20
2022-12-06T18:54:16.791Z,23.70
2022-12-06T18:56:44.544Z,18.50
2022-12-06T18:59:12.450Z,21.10
2022-12-06T19:01:41.901Z,22.10
2022-12-06T19:04:14.746Z,21.50
2022-12-06T19:06:43.522Z,22.40
2022-12-06T19:09:14.979Z,22.60
2022-12-06T19:11:46.032Z,18.80
2022-12-06T19:14:17.000Z,20.00
2022-12-06T19:16:48.747Z,22.00
2022-12-06T19:19:25.012Z,21.90
2022-12-06T19:21:54.951Z,24.80
2022-12-06T19:24:25.706Z,21.30
2022-12-06T19:26:58.082Z,18.30
2022-12-06T19:29:28.449Z,23.70
2022-12-06T19:31:56.629Z,22.70
2022-12-06T19:34:27.556Z,22.10
2022-12-06T19:36:56.859Z,22.80
2022-12-06T19:39:25.132Z,20.90
2022-12-06T19:42:11.939Z,19.70
2022-12-06T19:44:39.810Z,20.30
2022-12-06T19:47:07.491Z,19.60
2022-12-06T19:49:35.341Z,21.90
2022-12-06T19:52:03.615Z,20.70
2022-12-06T19:54:33.889Z,17.00
2022-12-06T19:57:02.309Z,19.10
2022-12-06T19:59:34.709Z,22.30
2022-12-06T20:02:03.737Z,23.50
2022-12-06T20:04:39.376Z,22.40
2022-12-06T20:07:08.806Z,21.50
2022-12-06T20:09:36.903Z,23.00
2022-12-06T20:12:06.106Z,29.30
2022-12-06T20:14:43.092Z,25.10
2022-12-06T20:17:19.392Z,26.60
2022-12-06T20:19:49.192Z,27.00
2022-12-06T20:22:19.819Z,25.80
2022-12-06T20:24:48.385Z,24.60
2022-12-06T20:27:16.712Z,22.90
2022-12-06T20:29:44.450Z,22.30
2022-12-06T20:32:12.240Z,24.70
2022-12-06T20:34:39.919Z,23.40
2022-12-06T20:37:07.611Z,27.90
2022-12-06T20:39:36.082Z,25.50
2022-12-06T20:42:06.791Z,27.10
2022-12-06T20:44:35.088Z,20.50
2022-12-06T20:47:02.949Z,21.60
2022-12-06T20:49:30.941Z,23.70
2022-12-06T20:52:00.613Z,26.20
2022-12-06T20:54:28.433Z,24.60
2022-12-06T20:56:56.188Z,24.90
2022-12-06T20:59:24.244Z,28.70
2022-12-06T21:01:51.979Z,28.70
2022-12-06T21:04:19.917Z,24.00
2022-12-06T21:06:47.628Z,22.00
2022-12-06T21:09:15.359Z,18.40
2022-12-06T21:11:43.146Z,18.00
2022-12-06T21:14:13.993Z,21.10
2022-12-06T21:16:43.821Z,19.10
2022-12-06T21:19:18.268Z,22.60
2022-12-06T21:21:51.239Z,24.30
2022-12-06T21:24:21.853Z,21.10
2022-12-06T21:26:49.827Z,18.20
2022-12-06T21:29:26.608Z,24.40
2022-12-06T21:32:01.714Z,27.10
2022-12-06T21:34:29.561Z,27.30
2022-12-06T21:36:57.441Z,22.40
2022-12-06T21:39:25.096Z,31.40
2022-12-06T21:41:54.037Z,34.20
2022-12-06T21:44:21.912Z,29.00
2022-12-06T21:46:53.747Z,25.90
2022-12-06T21:49:21.572Z,18.70
2022-12-06T21:51:49.311Z,23.10
2022-12-06T21:54:16.906Z,21.10
2022-12-06T21:56:45.245Z,24.80
2022-12-06T21:59:12.942Z,23.50
2022-12-06T22:01:40.803Z,26.90
2022-12-06T22:04:08.544Z,23.50
2022-12-06T22:06:36.753Z,24.00
2022-12-06T22:09:06.521Z,24.50
2022-12-06T22:11:35.034Z,18.40
2022-12-06T22:14:05.082Z,22.90
2022-12-06T22:16:32.987Z,20.30
2022-12-06T22:19:01.577Z,22.20
2022-12-06T22:21:32.001Z,26.00
2022-12-06T22:24:00.786Z,21.40
2022-12-06T22:26:30.882Z,22.70
2022-12-06T22:29:00.489Z,19.50
2022-12-06T22:31:33.515Z,19.50
2022-12-06T22:34:02.512Z,22.50
2022-12-06T22:36:31.958Z,18.70
2022-12-06T22:39:02.684Z,15.50
2022-12-06T22:41:30.681Z,21.00
2022-12-06T22:44:03.070Z,23.10
2022-12-06T22:46:32.274Z,21.90
2022-12-06T22:49:01.927Z,21.40
2022-12-06T22:51:36.840Z,18.60
2022-12-06T22:54:10.362Z,16.40
2022-12-06T22:56:41.252Z,19.70
2022-12-06T22:59:09.399Z,22.30
2022-12-06T23:01:37.029Z,12.50
2022-12-06T23:04:06.962Z,24.30
2022-12-06T23:06:36.674Z,27.10
2022-12-06T23:09:07.560Z,21.70
2022-12-06T23:11:37.173Z,22.30
2022-12-06T23:14:05.514Z,17.10
2022-12-06T23:16:33.421Z,21.20
2022-12-06T23:19:03.351Z,22.20
2022-12-06T23:21:34.597Z,24.10
2022-12-06T23:24:07.244Z,23.50
2022-12-06T23:26:49.710Z,26.10
2022-12-06T23:29:19.730Z,25.60
2022-12-06T23:31:47.472Z,20.30
2022-12-06T23:34:22.448Z,24.40
2022-12-06T23:36:50.400Z,19.70
2022-12-06T23:39:18.731Z,17.30
2022-12-06T23:41:46.392Z,21.60
2022-12-06T23:44:14.574Z,17.00
2022-12-06T23:46:44.464Z,22.20
2022-12-06T23:49:21.186Z,26.50
2022-12-06T23:51:48.978Z,24.60
2022-12-06T23:54:18.383Z,24.00
2022-12-06T23:56:47.131Z,22.20
2022-12-06T23:59:16.728Z,21.00
